Time;durP1;ratioP1;P1;durP2;ratioP2;P2;SDS_P1;SDS_P2;PMS_P1;PMS_P2;Temp;Humidity;BMP_temperature;BMP_pressure;BME280_temperature;BME280_humidity;BME280_pressure;Samples;Min_cycle;Max_cycle;Signal;HPM_P1;HPM_P2
2024/02/18 00:02:07;;;;;;;;;;;;;;;;;;5028634;28;19921;-88
2024/02/18 00:04:33;;;;;;;;;;;;;;;;;;5024588;28;19917;-87
2024/02/18 00:06:59;;;;;;;;;;;;;;;;;;5027414;28;19917;-89
2024/02/18 00:09:25;;;;;;;;;;;;;;;;;;5022815;28;19913;-87
2024/02/18 00:11:51;;;;;;;;;;;;;;;;;;5020048;28;19926;-87
2024/02/18 00:14:17;;;;;;;;;;;;;;;;;;5022619;28;19970;-88
2024/02/18 00:16:43;;;;;;;;;;;;;;;;;;5021344;28;20295;-88
2024/02/18 00:19:09;;;;;;;;;;;;;;;;;;5024998;28;19917;-88
2024/02/18 00:21:37;;;;;;;;;;;;;;;;;;5032197;28;20016;-88
2024/02/18 00:24:02;;;;;;;;;;;;;;;;;;5035870;28;19913;-87
2024/02/18 00:26:28;;;;;;;;;;;;;;;;;;5025923;28;20339;-87
2024/02/18 00:28:54;;;;;;;;;;;;;;;;;;5035337;28;19978;-87
2024/02/18 00:31:20;;;;;;;;;;;;;;;;;;5025193;28;20009;-87
2024/02/18 00:33:46;;;;;;;;;;;;;;;;;;5029279;28;20287;-88
2024/02/18 00:36:12;;;;;;;;;;;;;;;;;;5021155;28;20312;-87
2024/02/18 00:38:38;;;;;;;;;;;;;;;;;;5026036;28;19917;-88
2024/02/18 00:41:05;;;;;;;;;;;;;;;;;;5027314;28;19941;-89
2024/02/18 00:43:31;;;;;;;;;;;;;;;;;;5030476;28;19921;-88
2024/02/18 00:45:57;;;;;;;;;;;;;;;;;;5030752;28;19913;-88
2024/02/18 00:48:23;;;;;;;;;;;;;;;;;;5026013;28;19968;-87
2024/02/18 00:50:49;;;;;;;;;;;;;;;;;;5028589;28;19921;-88
2024/02/18 00:53:14;;;;;;;;;;;;;;;;;;5023009;28;20609;-87
2024/02/18 00:55:43;;;;;;;;;;;;;;;;;;5024001;28;19936;-87
2024/02/18 00:58:09;;;;;;;;;;;;;;;;;;5029010;28;19913;-87
2024/02/18 01:00:35;;;;;;;;;;;;;;;;;;5015352;28;19981;-87
2024/02/18 01:03:01;;;;;;;;;;;;;;;;;;5028112;28;20029;-87
2024/02/18 01:05:27;;;;;;;;;;;;;;;;;;5029004;28;19972;-88
2024/02/18 01:07:53;;;;;;;;;;;;;;;;;;5028744;28;20280;-88
2024/02/18 01:10:19;;;;;;;;;;;;;;;;;;5019910;28;20292;-88
2024/02/18 01:12:44;;;;;;;;;;;;;;;;;;5035679;28;20073;-89
2024/02/18 01:15:10;;;;;;;;;;;;;;;;;;5030199;28;19920;-88
2024/02/18 01:17:36;;;;;;;;;;;;;;;;;;5026185;28;19928;-88
2024/02/18 01:20:02;;;;;;;;;;;;;;;;;;5023349;28;20280;-88
2024/02/18 01:22:28;;;;;;;;;;;;;;;;;;5031177;28;19921;-89
2024/02/18 01:24:54;;;;;;;;;;;;;;;;;;5030548;28;20257;-89
2024/02/18 01:27:20;;;;;;;;;;;;;;;;;;5033486;28;19963;-89
2024/02/18 01:29:46;;;;;;;;;;;;;;;;;;5032145;28;19948;-88
2024/02/18 01:32:12;;;;;;;;;;;;;;;;;;5026468;28;19917;-88
2024/02/18 01:34:37;;;;;;;;;;;;;;;;;;5035543;28;19925;-88
2024/02/18 01:37:03;;;;;;;;;;;;;;;;;;5033355;28;19948;-88
2024/02/18 01:39:29;;;;;;;;;;;;;;;;;;5025706;28;19996;-89
2024/02/18 01:41:55;;;;;;;;;;;;;;;;;;5025214;28;19913;-87
2024/02/18 01:44:21;;;;;;;;;;;;;;;;;;5018883;28;20380;-88
2024/02/18 01:46:47;;;;;;;;;;;;;;;;;;5026294;28;19925;-89
2024/02/18 01:49:13;;;;;;;;;;;;;;;;;;5031030;28;19918;-88
2024/02/18 01:51:39;;;;;;;;;;;;;;;;;;5028090;28;19917;-89
2024/02/18 01:54:05;;;;;;;;;;;;;;;;;;5033673;28;20391;-87
2024/02/18 01:56:30;;;;;;;;;;;;;;;;;;5035161;28;20303;-89
2024/02/18 01:58:56;;;;;;;;;;;;;;;;;;5030612;28;19913;-89
2024/02/18 02:01:22;;;;;;;;;;;;;;;;;;5023962;28;19921;-88
2024/02/18 02:03:49;;;;;;;;;;;;;;;;;;5027943;28;19932;-88
2024/02/18 02:06:15;;;;;;;;;;;;;;;;;;5025131;28;19917;-88
2024/02/18 02:08:41;;;;;;;;;;;;;;;;;;5031695;28;19917;-89
2024/02/18 02:11:07;;;;;;;;;;;;;;;;;;5030303;28;19981;-88
2024/02/18 02:13:33;;;;;;;;;;;;;;;;;;5031600;28;19932;-89
2024/02/18 02:15:59;;;;;;;;;;;;;;;;;;5029002;28;19913;-88
2024/02/18 02:18:25;;;;;;;;;;;;;;;;;;5029144;28;20592;-88
2024/02/18 02:20:51;;;;;;;;;;;;;;;;;;5030475;28;19917;-88
2024/02/18 02:23:16;;;;;;;;;;;;;;;;;;5024452;28;19916;-88
2024/02/18 02:25:42;;;;;;;;;;;;;;;;;;5021397;28;20007;-88
2024/02/18 02:28:08;;;;;;;;;;;;;;;;;;5023522;28;20009;-88
2024/02/18 02:30:34;;;;;;;;;;;;;;;;;;5023026;28;19938;-89
2024/02/18 02:33:00;;;;;;;;;;;;;;;;;;5028226;28;20379;-88
2024/02/18 02:35:26;;;;;;;;;;;;;;;;;;5031660;28;19937;-88
2024/02/18 02:37:52;;;;;;;;;;;;;;;;;;5033177;28;20035;-88
2024/02/18 02:40:18;;;;;;;;;;;;;;;;;;5029784;28;19917;-87
2024/02/18 02:42:44;;;;;;;;;;;;;;;;;;5032765;28;19927;-87
2024/02/18 02:45:10;;;;;;;;;;;;;;;;;;5026534;28;19909;-87
2024/02/18 02:47:37;;;;;;;;;;;;;;;;;;5023344;28;20288;-89
2024/02/18 02:50:02;;;;;;;;;;;;;;;;;;5028112;28;19928;-88
2024/02/18 02:52:28;;;;;;;;;;;;;;;;;;5029284;28;19921;-88
2024/02/18 02:54:54;;;;;;;;;;;;;;;;;;5025451;28;19916;-87
2024/02/18 02:57:20;;;;;;;;;;;;;;;;;;5028482;28;19922;-88
2024/02/18 02:59:49;;;;;;;;;;;;;;;;;;5030588;28;19960;-88
2024/02/18 03:02:15;;;;;;;;;;;;;;;;;;5028764;28;20004;-87
2024/02/18 03:04:41;;;;;;;;;;;;;;;;;;5021755;28;19956;-88
2024/02/18 03:07:07;;;;;;;;;;;;;;;;;;5022682;28;19909;-87
2024/02/18 03:09:33;;;;;;;;;;;;;;;;;;5031570;28;19944;-88
2024/02/18 03:11:59;;;;;;;;;;;;;;;;;;5025328;28;19929;-88
2024/02/18 03:14:25;;;;;;;;;;;;;;;;;;5028361;28;20492;-88
2024/02/18 03:16:51;;;;;;;;;;;;;;;;;;5018313;28;19913;-88
2024/02/18 03:19:17;;;;;;;;;;;;;;;;;;5028701;28;20249;-88
2024/02/18 03:21:43;;;;;;;;;;;;;;;;;;5027209;28;19917;-87
2024/02/18 03:24:10;;;;;;;;;;;;;;;;;;5031350;28;19921;-87
2024/02/18 03:26:36;;;;;;;;;;;;;;;;;;5030792;28;21443;-88
2024/02/18 03:29:03;;;;;;;;;;;;;;;;;;5029062;28;20004;-88
2024/02/18 03:31:29;;;;;;;;;;;;;;;;;;5046213;28;19921;-88
2024/02/18 03:33:56;;;;;;;;;;;;;;;;;;5023663;28;19918;-88
2024/02/18 03:36:22;;;;;;;;;;;;;;;;;;5030539;28;19913;-88
2024/02/18 03:38:48;;;;;;;;;;;;;;;;;;5027652;28;19921;-87
2024/02/18 03:41:14;;;;;;;;;;;;;;;;;;5026874;28;19913;-88
2024/02/18 03:43:40;;;;;;;;;;;;;;;;;;5026790;28;19913;-88
2024/02/18 03:46:08;;;;;;;;;;;;;;;;;;5026214;28;19917;-87
2024/02/18 03:48:34;;;;;;;;;;;;;;;;;;5027362;28;19919;-89
2024/02/18 03:51:00;;;;;;;;;;;;;;;;;;5031262;28;20318;-87
2024/02/18 03:53:25;;;;;;;;;;;;;;;;;;5028001;28;20128;-87
2024/02/18 03:55:51;;;;;;;;;;;;;;;;;;5030036;28;19996;-88
2024/02/18 03:58:17;;;;;;;;;;;;;;;;;;5025255;28;19941;-88
2024/02/18 04:00:46;;;;;;;;;;;;;;;;;;5014704;28;19918;-87
2024/02/18 04:03:12;;;;;;;;;;;;;;;;;;5035513;28;19928;-87
2024/02/18 04:05:37;;;;;;;;;;;;;;;;;;5030825;28;19916;-87
2024/02/18 04:08:03;;;;;;;;;;;;;;;;;;5022509;28;19921;-88
2024/02/18 04:10:30;;;;;;;;;;;;;;;;;;5025949;28;19928;-88
2024/02/18 04:12:55;;;;;;;;;;;;;;;;;;5027101;28;19921;-88
2024/02/18 04:15:22;;;;;;;;;;;;;;;;;;5029541;28;20021;-88
2024/02/18 04:17:48;;;;;;;;;;;;;;;;;;5016993;28;19917;-88
2024/02/18 04:20:14;;;;;;;;;;;;;;;;;;5028479;28;20439;-88
2024/02/18 04:22:40;;;;;;;;;;;;;;;;;;5029303;28;20329;-88
2024/02/18 04:25:06;;;;;;;;;;;;;;;;;;5030006;28;19919;-88
2024/02/18 04:27:31;;;;;;;;;;;;;;;;;;5030537;28;19917;-89
2024/02/18 04:29:57;;;;;;;;;;;;;;;;;;5026926;28;19922;-88
2024/02/18 04:32:23;;;;;;;;;;;;;;;;;;5028397;28;19917;-89
2024/02/18 04:34:49;;;;;;;;;;;;;;;;;;5027405;28;19925;-88
2024/02/18 04:37:15;;;;;;;;;;;;;;;;;;5024676;28;19913;-88
2024/02/18 04:39:41;;;;;;;;;;;;;;;;;;5017827;28;19913;-87
2024/02/18 04:42:07;;;;;;;;;;;;;;;;;;5026595;28;20402;-88
2024/02/18 04:44:33;;;;;;;;;;;;;;;;;;5025268;28;20283;-88
2024/02/18 04:46:59;;;;;;;;;;;;;;;;;;5030307;28;19917;-88
2024/02/18 04:49:25;;;;;;;;;;;;;;;;;;5027223;28;20563;-86
2024/02/18 04:51:51;;;;;;;;;;;;;;;;;;5027767;28;20291;-88
2024/02/18 04:54:17;;;;;;;;;;;;;;;;;;5034496;28;19957;-89
2024/02/18 04:56:42;;;;;;;;;;;;;;;;;;5032656;28;19980;-88
2024/02/18 04:59:08;;;;;;;;;;;;;;;;;;5028322;28;20008;-88
2024/02/18 05:01:34;;;;;;;;;;;;;;;;;;5028686;28;19988;-88
2024/02/18 05:04:00;;;;;;;;;;;;;;;;;;5023479;28;19913;-87
2024/02/18 05:06:26;;;;;;;;;;;;;;;;;;5029420;28;19963;-89
2024/02/18 05:08:52;;;;;;;;;;;;;;;;;;5023141;28;19928;-88
2024/02/18 05:11:17;;;;;;;;;;;;;;;;;;5032326;28;20311;-88
2024/02/18 05:13:43;;;;;;;;;;;;;;;;;;5032682;28;19922;-88
2024/02/18 05:16:09;;;;;;;;;;;;;;;;;;5025752;28;19936;-87
2024/02/18 05:18:35;;;;;;;;;;;;;;;;;;5031812;28;19948;-89
2024/02/18 05:21:01;;;;;;;;;;;;;;;;;;5033529;28;19916;-88
2024/02/18 05:23:27;;;;;;;;;;;;;;;;;;5042322;28;19917;-89
2024/02/18 05:25:53;;;;;;;;;;;;;;;;;;5029138;28;19917;-88
2024/02/18 05:28:19;;;;;;;;;;;;;;;;;;5030848;28;19913;-88
2024/02/18 05:30:45;;;;;;;;;;;;;;;;;;5031194;28;19913;-88
2024/02/18 05:33:10;;;;;;;;;;;;;;;;;;5040655;28;19948;-88
2024/02/18 05:35:36;;;;;;;;;;;;;;;;;;5038236;28;19924;-88
2024/02/18 05:38:02;;;;;;;;;;;;;;;;;;5032675;28;19921;-88
2024/02/18 05:40:29;;;;;;;;;;;;;;;;;;5035506;28;19975;-87
2024/02/18 05:42:55;;;;;;;;;;;;;;;;;;5039579;28;19913;-88
2024/02/18 05:45:22;;;;;;;;;;;;;;;;;;5042042;28;20034;-88
2024/02/18 05:47:48;;;;;;;;;;;;;;;;;;5034835;28;19917;-87
2024/02/18 05:50:14;;;;;;;;;;;;;;;;;;5043083;28;19909;-88
2024/02/18 05:52:40;;;;;;;;;;;;;;;;;;5035196;28;20062;-88
2024/02/18 05:55:05;;;;;;;;;;;;;;;;;;5039210;28;19928;-87
2024/02/18 05:57:31;;;;;;;;;;;;;;;;;;5033657;28;19913;-87
2024/02/18 05:59:57;;;;;;;;;;;;;;;;;;5039001;28;19920;-88
2024/02/18 06:02:23;;;;;;;;;;;;;;;;;;5029733;28;20383;-87
2024/02/18 06:04:49;;;;;;;;;;;;;;;;;;5031680;28;19920;-88
2024/02/18 06:07:15;;;;;;;;;;;;;;;;;;5039433;28;19916;-87
2024/02/18 06:09:41;;;;;;;;;;;;;;;;;;5025481;28;19981;-87
2024/02/18 06:12:07;;;;;;;;;;;;;;;;;;5038218;28;19921;-88
2024/02/18 06:14:33;;;;;;;;;;;;;;;;;;5037216;28;20427;-88
2024/02/18 06:16:59;;;;;;;;;;;;;;;;;;5035609;28;19917;-87
2024/02/18 06:19:24;;;;;;;;;;;;;;;;;;5038682;28;19920;-88
2024/02/18 06:21:50;;;;;;;;;;;;;;;;;;5029482;28;19917;-88
2024/02/18 06:24:16;;;;;;;;;;;;;;;;;;5030194;28;19913;-88
2024/02/18 06:26:42;;;;;;;;;;;;;;;;;;5032941;28;19984;-88
2024/02/18 06:29:08;;;;;;;;;;;;;;;;;;5021698;28;20007;-88
2024/02/18 06:31:34;;;;;;;;;;;;;;;;;;5027718;28;19913;-88
2024/02/18 06:34:00;;;;;;;;;;;;;;;;;;5024796;28;19924;-88
2024/02/18 06:36:27;;;;;;;;;;;;;;;;;;5030842;28;19996;-88
2024/02/18 06:38:53;;;;;;;;;;;;;;;;;;5030038;28;19920;-88
2024/02/18 06:41:19;;;;;;;;;;;;;;;;;;5035625;28;19913;-88
2024/02/18 06:43:44;;;;;;;;;;;;;;;;;;5037657;28;19960;-88
2024/02/18 06:46:10;;;;;;;;;;;;;;;;;;5032798;28;19940;-88
2024/02/18 06:48:36;;;;;;;;;;;;;;;;;;5032265;28;19913;-87
2024/02/18 06:51:02;;;;;;;;;;;;;;;;;;5033163;28;19952;-87
2024/02/18 06:53:28;;;;;;;;;;;;;;;;;;5028336;28;19925;-83
2024/02/18 06:55:54;;;;;;;;;;;;;;;;;;5027674;28;20288;-87
2024/02/18 06:58:21;;;;;;;;;;;;;;;;;;5041966;28;19913;-84
2024/02/18 07:00:46;;;;;;;;;;;;;;;;;;5018154;28;19924;-85
2024/02/18 07:03:12;;;;;;;;;;;;;;;;;;5027423;28;19921;-85
2024/02/18 07:05:38;;;;;;;;;;;;;;;;;;5035655;28;19924;-84
2024/02/18 07:08:06;;;;;;;;;;;;;;;;;;5030683;28;19916;-84
2024/02/18 07:10:31;;;;;;;;;;;;;;;;;;5035128;28;19963;-85
2024/02/18 07:12:57;;;;;;;;;;;;;;;;;;5024024;28;19925;-86
2024/02/18 07:15:23;;;;;;;;;;;;;;;;;;5025007;28;19924;-85
2024/02/18 07:17:49;;;;;;;;;;;;;;;;;;5034379;28;19913;-85
2024/02/18 07:20:15;;;;;;;;;;;;;;;;;;5029717;28;20008;-85
2024/02/18 07:22:44;;;;;;;;;;;;;;;;;;5021566;28;19914;-85
2024/02/18 07:25:09;;;;;;;;;;;;;;;;;;5025125;28;19917;-83
2024/02/18 07:27:35;;;;;;;;;;;;;;;;;;5028227;28;19921;-84
2024/02/18 07:30:03;;;;;;;;;;;;;;;;;;5026806;28;19944;-87
2024/02/18 07:32:28;;;;;;;;;;;;;;;;;;5026013;28;19928;-86
2024/02/18 07:34:54;;;;;;;;;;;;;;;;;;5019324;28;19925;-85
2024/02/18 07:37:20;;;;;;;;;;;;;;;;;;5022171;28;19926;-85
2024/02/18 07:39:46;;;;;;;;;;;;;;;;;;5029964;28;19913;-84
2024/02/18 07:42:12;;;;;;;;;;;;;;;;;;5028263;28;19948;-85
2024/02/18 07:44:38;;;;;;;;;;;;;;;;;;5037729;28;19917;-85
2024/02/18 07:47:03;;;;;;;;;;;;;;;;;;5029132;28;19917;-86
2024/02/18 07:49:29;;;;;;;;;;;;;;;;;;5017452;28;20590;-86
2024/02/18 07:51:55;;;;;;;;;;;;;;;;;;5024813;28;19928;-86
2024/02/18 07:54:21;;;;;;;;;;;;;;;;;;5026119;28;19929;-85
2024/02/18 07:56:47;;;;;;;;;;;;;;;;;;5025018;28;19943;-86
2024/02/18 07:59:13;;;;;;;;;;;;;;;;;;5026982;28;20413;-86
2024/02/18 08:01:39;;;;;;;;;;;;;;;;;;5028176;28;19913;-85
2024/02/18 08:04:05;;;;;;;;;;;;;;;;;;5026087;28;19928;-84
2024/02/18 08:06:31;;;;;;;;;;;;;;;;;;5024579;28;20374;-86
2024/02/18 08:08:57;;;;;;;;;;;;;;;;;;5025568;28;20008;-86
2024/02/18 08:11:23;;;;;;;;;;;;;;;;;;5024137;28;20003;-87
2024/02/18 08:13:49;;;;;;;;;;;;;;;;;;5028433;28;19924;-85
2024/02/18 08:16:15;;;;;;;;;;;;;;;;;;5026470;28;19921;-89
2024/02/18 08:18:41;;;;;;;;;;;;;;;;;;5028805;28;20321;-88
2024/02/18 08:21:06;;;;;;;;;;;;;;;;;;5026037;28;19939;-86
2024/02/18 08:23:32;;;;;;;;;;;;;;;;;;5026832;28;19957;-89
2024/02/18 08:25:58;;;;;;;;;;;;;;;;;;5030425;28;19967;-87
2024/02/18 08:28:24;;;;;;;;;;;;;;;;;;5031864;28;19913;-88
2024/02/18 08:30:50;;;;;;;;;;;;;;;;;;5031790;28;19918;-87
2024/02/18 08:33:16;;;;;;;;;;;;;;;;;;5020162;28;20014;-88
2024/02/18 08:35:42;;;;;;;;;;;;;;;;;;5028217;28;19913;-89
2024/02/18 08:38:08;;;;;;;;;;;;;;;;;;5030893;28;20260;-88
2024/02/18 08:40:34;;;;;;;;;;;;;;;;;;5033676;28;19921;-88
2024/02/18 08:43:00;;;;;;;;;;;;;;;;;;5031626;28;19917;-88
2024/02/18 08:45:26;;;;;;;;;;;;;;;;;;5029199;28;19943;-88
2024/02/18 08:47:52;;;;;;;;;;;;;;;;;;5029083;28;19913;-88
2024/02/18 08:50:18;;;;;;;;;;;;;;;;;;5036261;28;20325;-87
2024/02/18 08:52:44;;;;;;;;;;;;;;;;;;5028766;28;19936;-86
2024/02/18 08:55:10;;;;;;;;;;;;;;;;;;5031327;28;19920;-86
2024/02/18 08:57:35;;;;;;;;;;;;;;;;;;5026856;28;19975;-80
2024/02/18 09:00:02;;;;;;;;;;;;;;;;;;5031265;28;20328;-88
2024/02/18 09:02:28;;;;;;;;;;;;;;;;;;5031880;28;19940;-88
2024/02/18 09:04:54;;;;;;;;;;;;;;;;;;5030535;28;19914;-92
2024/02/18 09:07:20;;;;;;;;;;;;;;;;;;5045147;28;19920;-86
2024/02/18 09:09:46;;;;;;;;;;;;;;;;;;5030038;28;19964;-92
2024/02/18 09:12:12;;;;;;;;;;;;;;;;;;5029959;28;20722;-91
2024/02/18 09:14:37;;;;;;;;;;;;;;;;;;5034972;28;19917;-86
2024/02/18 09:17:03;;;;;;;;;;;;;;;;;;5037301;28;19925;-86
2024/02/18 09:19:29;;;;;;;;;;;;;;;;;;5024337;28;19921;-89
2024/02/18 09:21:55;;;;;;;;;;;;;;;;;;5034777;28;19999;-92
2024/02/18 09:24:21;;;;;;;;;;;;;;;;;;5037090;28;20059;-92
2024/02/18 09:26:47;;;;;;;;;;;;;;;;;;5039854;28;19936;-89
2024/02/18 09:29:13;;;;;;;;;;;;;;;;;;5027986;28;19909;-89
2024/02/18 09:31:39;;;;;;;;;;;;;;;;;;5023737;28;20354;-87
2024/02/18 09:34:05;;;;;;;;;;;;;;;;;;5030392;28;19921;-92
2024/02/18 09:36:33;;;;;;;;;;;;;;;;;;5030810;28;19963;-85
2024/02/18 09:38:59;;;;;;;;;;;;;;;;;;5029629;28;19921;-88
2024/02/18 09:41:24;;;;;;;;;;;;;;;;;;5023513;28;19983;-88
2024/02/18 09:43:50;;;;;;;;;;;;;;;;;;5032133;28;19917;-87
2024/02/18 09:46:17;;;;;;;;;;;;;;;;;;5029895;28;19928;-88
2024/02/18 09:48:42;;;;;;;;;;;;;;;;;;5030387;28;19913;-86
2024/02/18 09:51:08;;;;;;;;;;;;;;;;;;5032520;28;19928;-86
2024/02/18 09:53:37;;;;;;;;;;;;;;;;;;5039834;28;19967;-87
2024/02/18 09:56:04;;;;;;;;;;;;;;;;;;5023332;28;20412;-85
2024/02/18 09:58:33;;;;;;;;;;;;;;;;;;5024191;28;19918;-87
2024/02/18 10:01:00;;;;;;;;;;;;;;;;;;5022942;28;19913;-84
2024/02/18 10:03:27;;;;;;;;;;;;;;;;;;5027424;28;20287;-88
2024/02/18 10:05:54;;;;;;;;;;;;;;;;;;5027555;28;19924;-86
2024/02/18 10:08:20;;;;;;;;;;;;;;;;;;5028439;28;19986;-84
2024/02/18 10:10:46;;;;;;;;;;;;;;;;;;5030402;28;19975;-84
2024/02/18 10:13:12;;;;;;;;;;;;;;;;;;5031784;28;19917;-85
2024/02/18 10:15:38;;;;;;;;;;;;;;;;;;5021461;28;19924;-84
2024/02/18 10:18:07;;;;;;;;;;;;;;;;;;5022067;28;19913;-85
2024/02/18 10:20:33;;;;;;;;;;;;;;;;;;5029395;28;19920;-88
2024/02/18 10:22:59;;;;;;;;;;;;;;;;;;5015400;28;19913;-86
2024/02/18 10:25:25;;;;;;;;;;;;;;;;;;5026278;28;19957;-85
2024/02/18 10:27:50;;;;;;;;;;;;;;;;;;5023823;28;20007;-86
2024/02/18 10:30:16;;;;;;;;;;;;;;;;;;5020926;28;19996;-86
2024/02/18 10:32:42;;;;;;;;;;;;;;;;;;5020964;28;20372;-86
2024/02/18 10:35:08;;;;;;;;;;;;;;;;;;5019735;28;19927;-84
2024/02/18 10:37:34;;;;;;;;;;;;;;;;;;5025102;28;19912;-88
2024/02/18 10:40:00;;;;;;;;;;;;;;;;;;5032867;28;20406;-87
2024/02/18 10:42:26;;;;;;;;;;;;;;;;;;5026855;28;19913;-88
2024/02/18 10:44:52;;;;;;;;;;;;;;;;;;5027197;28;19924;-84
2024/02/18 10:47:18;;;;;;;;;;;;;;;;;;5018095;28;19917;-86
2024/02/18 10:49:44;;;;;;;;;;;;;;;;;;5030996;28;19920;-92
2024/02/18 10:52:10;;;;;;;;;;;;;;;;;;5031856;28;19913;-87
2024/02/18 10:54:36;;;;;;;;;;;;;;;;;;5031618;28;19931;-88
2024/02/18 10:57:02;;;;;;;;;;;;;;;;;;5034476;28;19947;-88
2024/02/18 10:59:28;;;;;;;;;;;;;;;;;;5047029;28;20328;-87
2024/02/18 11:01:55;;;;;;;;;;;;;;;;;;5033382;28;19920;-89
2024/02/18 11:04:21;;;;;;;;;;;;;;;;;;5033835;28;19917;-85
2024/02/18 11:06:47;;;;;;;;;;;;;;;;;;5040568;28;19913;-90
2024/02/18 11:09:12;;;;;;;;;;;;;;;;;;5050018;28;19938;-88
2024/02/18 11:11:38;;;;;;;;;;;;;;;;;;5023921;28;20381;-88
2024/02/18 11:14:05;;;;;;;;;;;;;;;;;;5026224;28;19918;-87
2024/02/18 11:16:31;;;;;;;;;;;;;;;;;;5027745;28;19984;-87
2024/02/18 11:18:58;;;;;;;;;;;;;;;;;;5037940;28;19959;-91
2024/02/18 11:21:24;;;;;;;;;;;;;;;;;;5030321;28;20553;-89
2024/02/18 11:23:50;;;;;;;;;;;;;;;;;;5031415;28;19913;-90
2024/02/18 11:26:15;;;;;;;;;;;;;;;;;;5024528;28;19917;-89
2024/02/18 11:28:41;;;;;;;;;;;;;;;;;;5030155;28;19913;-88
2024/02/18 11:31:08;;;;;;;;;;;;;;;;;;5032255;28;19913;-88
2024/02/18 11:33:34;;;;;;;;;;;;;;;;;;5035482;28;19933;-92
2024/02/18 11:36:01;;;;;;;;;;;;;;;;;;5031797;28;23274;-91
2024/02/18 11:38:27;;;;;;;;;;;;;;;;;;5029384;28;19920;-92
2024/02/18 11:40:53;;;;;;;;;;;;;;;;;;5042572;28;19948;-90
2024/02/18 11:43:19;;;;;;;;;;;;;;;;;;5050331;28;19920;-91
2024/02/18 11:45:45;;;;;;;;;;;;;;;;;;5035884;28;19920;-91
2024/02/18 11:48:11;;;;;;;;;;;;;;;;;;5039178;28;19921;-91
2024/02/18 11:50:37;;;;;;;;;;;;;;;;;;5043537;28;19920;-92
2024/02/18 11:53:03;;;;;;;;;;;;;;;;;;5036486;28;19969;-92
2024/02/18 11:55:29;;;;;;;;;;;;;;;;;;5037614;28;19928;-92
2024/02/18 11:57:55;;;;;;;;;;;;;;;;;;5033836;28;19920;-92
2024/02/18 12:00:20;;;;;;;;;;;;;;;;;;5026037;28;19971;-90
2024/02/18 12:02:50;;;;;;;;;;;;;;;;;;5027151;28;19914;-92
2024/02/18 12:05:16;;;;;;;;;;;;;;;;;;5029681;28;19971;-89
2024/02/18 12:07:45;;;;;;;;;;;;;;;;;;5029383;28;19913;-90
2024/02/18 12:10:11;;;;;;;;;;;;;;;;;;5034765;28;19933;-91
2024/02/18 12:12:36;;;;;;;;;;;;;;;;;;5031236;28;20021;-90
2024/02/18 12:15:02;;;;;;;;;;;;;;;;;;5027952;28;19983;-91
2024/02/18 12:17:28;;;;;;;;;;;;;;;;;;5044395;28;19913;-89
2024/02/18 12:19:54;;;;;;;;;;;;;;;;;;5033656;28;19924;-89
2024/02/18 12:22:20;;;;;;;;;;;;;;;;;;5043492;28;19927;-89
2024/02/18 12:24:46;;;;;;;;;;;;;;;;;;5049657;28;19912;-92
2024/02/18 12:27:12;;;;;;;;;;;;;;;;;;5036781;28;19993;-90
2024/02/18 12:29:38;;;;;;;;;;;;;;;;;;5031974;28;19940;-87
2024/02/18 12:32:04;;;;;;;;;;;;;;;;;;5040991;28;20025;-87
2024/02/18 12:34:30;;;;;;;;;;;;;;;;;;5043923;28;20430;-92
2024/02/18 12:36:58;;;;;;;;;;;;;;;;;;5047554;28;19913;-93
2024/02/18 12:39:24;;;;;;;;;;;;;;;;;;5036611;28;19913;-92
2024/02/18 12:41:50;;;;;;;;;;;;;;;;;;5036333;28;19939;-88
2024/02/18 12:44:16;;;;;;;;;;;;;;;;;;5033148;28;20385;-85
2024/02/18 12:46:52;;;;;;;;;;;;;;;;;;5054393;28;19981;-92
2024/02/18 12:57:37;;;;;;;;;;;;;;;;;;5023976;28;19914;-93
2024/02/18 13:00:07;;;;;;;;;;;;;;;;;;5009473;28;19913;-94
2024/02/18 13:02:35;;;;;;;;;;;;;;;;;;5023082;28;19914;-93
2024/02/18 13:05:10;;;;;;;;;;;;;;;;;;5028348;28;19913;-94
2024/02/18 13:07:39;;;;;;;;;;;;;;;;;;5020419;28;21051;-93
2024/02/18 13:10:05;;;;;;;;;;;;;;;;;;5009773;28;19921;-89
2024/02/18 13:12:33;;;;;;;;;;;;;;;;;;5041680;28;20278;-93
2024/02/18 13:14:59;;;;;;;;;;;;;;;;;;5079794;28;20075;-91
2024/02/18 13:17:25;;;;;;;;;;;;;;;;;;5076765;28;19912;-91
2024/02/18 13:19:54;;;;;;;;;;;;;;;;;;5070948;28;19913;-88
2024/02/18 13:22:20;;;;;;;;;;;;;;;;;;5088319;28;19932;-89
2024/02/18 13:24:49;;;;;;;;;;;;;;;;;;5069067;28;20383;-92
2024/02/18 13:27:15;;;;;;;;;;;;;;;;;;5082478;28;19912;-92
2024/02/18 13:29:41;;;;;;;;;;;;;;;;;;5082009;28;19987;-91
2024/02/18 13:32:07;;;;;;;;;;;;;;;;;;5079214;28;19920;-86
2024/02/18 13:34:33;;;;;;;;;;;;;;;;;;5072684;28;19916;-90
2024/02/18 13:36:59;;;;;;;;;;;;;;;;;;5064963;28;19941;-89
2024/02/18 13:39:25;;;;;;;;;;;;;;;;;;5067035;28;19916;-91
2024/02/18 13:41:51;;;;;;;;;;;;;;;;;;5057176;28;20003;-90
2024/02/18 13:44:17;;;;;;;;;;;;;;;;;;5052261;28;20008;-90
2024/02/18 13:46:43;;;;;;;;;;;;;;;;;;5056835;28;20654;-90
2024/02/18 13:49:09;;;;;;;;;;;;;;;;;;5039260;28;19920;-92
2024/02/18 13:51:37;;;;;;;;;;;;;;;;;;5060705;28;19913;-93
2024/02/18 13:54:03;;;;;;;;;;;;;;;;;;5052696;28;19984;-90
2024/02/18 13:56:29;;;;;;;;;;;;;;;;;;5060647;28;19974;-90
2024/02/18 13:58:55;;;;;;;;;;;;;;;;;;5052047;28;19920;-88
2024/02/18 14:01:21;;;;;;;;;;;;;;;;;;5050325;28;19917;-88
2024/02/18 14:03:49;;;;;;;;;;;;;;;;;;5048263;28;20796;-93
2024/02/18 14:06:15;;;;;;;;;;;;;;;;;;5070316;28;20728;-87
2024/02/18 14:08:40;;;;;;;;;;;;;;;;;;5052475;28;19920;-87
2024/02/18 14:11:06;;;;;;;;;;;;;;;;;;5048458;28;19909;-91
2024/02/18 14:13:32;;;;;;;;;;;;;;;;;;5059658;28;19921;-90
2024/02/18 14:15:58;;;;;;;;;;;;;;;;;;5050795;28;19920;-90
2024/02/18 14:18:24;;;;;;;;;;;;;;;;;;5052985;28;19916;-84
2024/02/18 14:20:50;;;;;;;;;;;;;;;;;;5050143;28;20042;-85
2024/02/18 14:23:15;;;;;;;;;;;;;;;;;;5050445;28;19916;-91
2024/02/18 14:25:41;;;;;;;;;;;;;;;;;;5022957;28;19913;-90
2024/02/18 14:28:09;;;;;;;;;;;;;;;;;;5045177;28;19917;-85
2024/02/18 14:30:34;;;;;;;;;;;;;;;;;;5044584;28;19913;-87
2024/02/18 14:33:00;;;;;;;;;;;;;;;;;;5053924;28;19917;-89
2024/02/18 14:35:26;;;;;;;;;;;;;;;;;;5048147;28;19913;-88
2024/02/18 14:37:52;;;;;;;;;;;;;;;;;;5048811;28;19917;-85
2024/02/18 14:40:18;;;;;;;;;;;;;;;;;;5054523;28;19913;-86
2024/02/18 14:42:44;;;;;;;;;;;;;;;;;;5047084;28;19976;-89
2024/02/18 14:45:09;;;;;;;;;;;;;;;;;;5056479;28;19943;-85
2024/02/18 14:47:35;;;;;;;;;;;;;;;;;;5049547;28;19913;-86
2024/02/18 14:50:01;;;;;;;;;;;;;;;;;;5042445;28;19917;-84
2024/02/18 14:52:27;;;;;;;;;;;;;;;;;;5051961;28;19965;-87
2024/02/18 14:54:53;;;;;;;;;;;;;;;;;;5049495;28;19921;-88
2024/02/18 14:57:19;;;;;;;;;;;;;;;;;;5051113;28;19970;-87
2024/02/18 14:59:45;;;;;;;;;;;;;;;;;;5049377;28;20062;-86
2024/02/18 15:02:11;;;;;;;;;;;;;;;;;;5043059;28;19920;-86
2024/02/18 15:04:37;;;;;;;;;;;;;;;;;;5047401;28;19913;-86
2024/02/18 15:07:03;;;;;;;;;;;;;;;;;;5028724;28;19917;-86
2024/02/18 15:09:32;;;;;;;;;;;;;;;;;;5049178;28;20082;-85
2024/02/18 15:11:57;;;;;;;;;;;;;;;;;;5056549;28;19969;-87
2024/02/18 15:14:24;;;;;;;;;;;;;;;;;;5060973;28;19924;-90
2024/02/18 15:16:50;;;;;;;;;;;;;;;;;;5052939;28;20015;-86
2024/02/18 15:19:16;;;;;;;;;;;;;;;;;;5052857;28;19959;-89
2024/02/18 15:21:44;;;;;;;;;;;;;;;;;;5053884;28;19913;-89
2024/02/18 15:24:10;;;;;;;;;;;;;;;;;;5055241;28;19920;-89
2024/02/18 15:26:35;;;;;;;;;;;;;;;;;;5055615;28;19958;-90
2024/02/18 15:29:01;;;;;;;;;;;;;;;;;;5047206;28;19920;-85
2024/02/18 15:31:27;;;;;;;;;;;;;;;;;;5041389;28;19921;-84
2024/02/18 15:33:53;;;;;;;;;;;;;;;;;;5049643;28;20374;-84
2024/02/18 15:36:19;;;;;;;;;;;;;;;;;;5044155;28;19924;-85
2024/02/18 15:38:46;;;;;;;;;;;;;;;;;;5039208;28;19917;-83
2024/02/18 15:41:12;;;;;;;;;;;;;;;;;;5048440;28;19924;-84
2024/02/18 15:43:38;;;;;;;;;;;;;;;;;;5049542;28;19913;-85
2024/02/18 15:46:05;;;;;;;;;;;;;;;;;;5046088;28;19920;-85
2024/02/18 15:48:31;;;;;;;;;;;;;;;;;;5042677;28;19920;-84
2024/02/18 15:50:57;;;;;;;;;;;;;;;;;;5043548;28;19921;-86
2024/02/18 15:53:23;;;;;;;;;;;;;;;;;;5029518;28;19929;-84
2024/02/18 15:55:49;;;;;;;;;;;;;;;;;;5048545;28;20391;-86
2024/02/18 15:58:15;;;;;;;;;;;;;;;;;;5042212;28;20011;-85
2024/02/18 16:00:41;;;;;;;;;;;;;;;;;;5052035;28;19917;-85
2024/02/18 16:03:07;;;;;;;;;;;;;;;;;;5040510;28;19913;-84
2024/02/18 16:05:33;;;;;;;;;;;;;;;;;;5035151;28;19971;-85
2024/02/18 16:10:51;;;;;;;;;;;;;;;;;;5043640;28;19952;-84
2024/02/18 16:13:17;;;;;;;;;;;;;;;;;;5027664;28;19970;-86
2024/02/18 16:15:43;;;;;;;;;;;;;;;;;;5045648;28;20409;-86
2024/02/18 16:18:08;;;;;;;;;;;;;;;;;;5047688;28;19921;-86
2024/02/18 16:20:35;;;;;;;;;;;;;;;;;;5047684;28;19913;-85
2024/02/18 16:23:01;;;;;;;;;;;;;;;;;;5047115;28;19912;-86
2024/02/18 16:25:27;;;;;;;;;;;;;;;;;;5047991;28;20123;-85
2024/02/18 16:27:52;;;;;;;;;;;;;;;;;;5049483;28;19913;-86
2024/02/18 16:30:19;;;;;;;;;;;;;;;;;;5046420;28;20011;-85
2024/02/18 16:32:45;;;;;;;;;;;;;;;;;;5047844;28;19917;-89
2024/02/18 16:35:11;;;;;;;;;;;;;;;;;;5046434;28;19923;-84
2024/02/18 16:37:37;;;;;;;;;;;;;;;;;;5046478;28;19996;-84
2024/02/18 16:40:02;;;;;;;;;;;;;;;;;;5046230;28;19920;-83
2024/02/18 16:42:29;;;;;;;;;;;;;;;;;;5038162;28;19920;-82
2024/02/18 16:44:55;;;;;;;;;;;;;;;;;;5045219;28;19917;-80
2024/02/18 16:47:24;;;;;;;;;;;;;;;;;;5044409;28;19921;-82
2024/02/18 16:49:53;;;;;;;;;;;;;;;;;;5054821;28;19916;-82